Airfield :
LOGIN :

Register | Disclaimer

   EN    FR    IT 

 










Legend :    VFR   Marginal VFR   IFR   Intensive IFR   Very Intensive IFR
Visi :
Ceiling :
>= 8 km
>= 3000ft
5 to 8 km
1000 to 3000 ft
1500m to 5 km
500 to 1000 ft
800 to 1500m
200 to 500 ft
< 800m
< 200 ft
Symbols :   Thunderstorms  Fog  Heavy snow  Heavy precipitations  Wind > 20 kt
SIGMETs :     Misc.  Thunderstorms  Icing  Turbulence  Mountain Waves  Volcanic Ashes






- Airport Elevation : 7 ft
- IATA code : XHE


LFTH - Hyeres

CURRENT METAR :
  • 101930Z AUTO 01007KT 6000 RA FEW012/// BKN019/// OVC039/// ///CB 10/10 Q1015 BECMG 09014KT OVC045

EXPIRED METARs :
  • 101900Z AUTO 01008KT 7000 RA BKN046/// OVC056/// ///TCU 10/09 Q1015 BECMG 09014KT OVC045
  • 101830Z AUTO 02005KT 7000 RA BKN042/// OVC049/// ///TCU 10/09 Q1016 BECMG 09014KT OVC045
  • 101800Z AUTO 01004KT 340V040 6000 +RA FEW023/// BKN039/// BKN045/// ///TCU 10/09 Q1016 BECMG 09014KT OVC045
  • 101730Z AUTO 03005KT 9000 RA FEW034/// BKN046/// OVC058/// ///TCU 10/09 Q1016 BECMG 09014KT OVC045
  • 101700Z AUTO 03004KT 360V060 8000 RA ///TCU 10/09 Q1017 BECMG 09014KT OVC045

TAF TAF LFTH
Valid from the 10 at 15:00 until the 11 at 15:00 UTC


101400Z 1015/1115 09014KT 9999 RA OVC045
BECMG 1022/1024 BKN010 OVC035
BECMG 1102/1104 19004KT NSW
BECMG 1112/1114 12010KT



MET'MAP, your aeronautical weather chart ! - Copyright ORBIFLY December 2007 - Disclaimer

ORBIFLY MET'MAP TEAM :

Programming & Development : Alexandra Zaïnal
Concept & original design : Baudouin d'Aumeries
Assistance for programming : Marc-Olivier Méhu
Technical & hardware support : Manuel Goepfert

Contact : metmap@orbifly.com




SOURCES & CREDITS :

   NOAA